createdAt,value
2023-03-25T00:01:32.962Z,78.59
2023-03-25T00:04:01.079Z,79.22
2023-03-25T00:06:28.114Z,78.66
2023-03-25T00:08:55.082Z,79.22
2023-03-25T00:11:21.572Z,78.29
2023-03-25T00:13:50.967Z,78.97
2023-03-25T00:16:19.168Z,78.76
2023-03-25T00:18:47.984Z,78.73
2023-03-25T00:21:14.580Z,78.02
2023-03-25T00:23:41.606Z,77.94
2023-03-25T00:26:08.111Z,77.74
2023-03-25T00:28:35.209Z,78.44
2023-03-25T00:31:02.555Z,78.87
2023-03-25T00:33:29.218Z,79.09
2023-03-25T00:35:59.467Z,79.82
2023-03-25T00:38:33.517Z,79.18
2023-03-25T00:41:08.284Z,79.34
2023-03-25T00:43:34.764Z,79.42
2023-03-25T00:46:04.059Z,79.47
2023-03-25T00:48:30.568Z,79.34
2023-03-25T00:50:57.075Z,79.86
2023-03-25T00:53:23.750Z,79.06
2023-03-25T00:55:51.130Z,78.86
2023-03-25T00:58:17.941Z,79.01
2023-03-25T01:00:44.537Z,78.80
2023-03-25T01:03:12.800Z,78.40
2023-03-25T01:05:41.662Z,78.54
2023-03-25T01:08:08.626Z,78.62
2023-03-25T01:10:36.039Z,78.83
2023-03-25T01:13:02.650Z,78.53
2023-03-25T01:15:29.081Z,78.12
2023-03-25T01:17:55.791Z,78.37
2023-03-25T01:20:22.349Z,77.79
2023-03-25T01:22:48.778Z,77.67
2023-03-25T01:25:15.395Z,77.30
2023-03-25T01:27:42.052Z,77.50
2023-03-25T01:30:09.045Z,77.24
2023-03-25T01:32:35.677Z,77.97
2023-03-25T01:35:02.196Z,77.76
2023-03-25T01:37:29.554Z,76.70
2023-03-25T01:39:56.195Z,72.48
2023-03-25T01:42:22.773Z,71.48
2023-03-25T01:44:52.254Z,69.43
2023-03-25T01:47:18.664Z,68.90
2023-03-25T01:49:45.572Z,70.24
2023-03-25T01:52:11.988Z,70.77
2023-03-25T01:54:38.887Z,70.88
2023-03-25T01:57:06.293Z,71.29
2023-03-25T01:59:32.764Z,71.69
2023-03-25T02:02:01.653Z,70.50
2023-03-25T02:04:34.949Z,70.79
2023-03-25T02:07:01.425Z,70.69
2023-03-25T02:09:27.906Z,71.56
2023-03-25T02:11:54.977Z,71.04
2023-03-25T02:14:22.607Z,71.72
2023-03-25T02:16:51.049Z,71.95
2023-03-25T02:19:23.594Z,72.76
2023-03-25T02:21:56.720Z,72.57
2023-03-25T02:24:29.912Z,73.15
2023-03-25T02:27:03.744Z,72.48
2023-03-25T02:29:34.077Z,73.01
2023-03-25T02:32:19.398Z,73.32
2023-03-25T02:34:51.624Z,73.82
2023-03-25T02:37:21.254Z,73.87
2023-03-25T02:39:49.233Z,73.85
2023-03-25T02:42:18.654Z,73.85
2023-03-25T02:45:01.633Z,74.29
2023-03-25T02:47:30.401Z,74.31
2023-03-25T02:49:58.266Z,74.11
2023-03-25T02:52:28.798Z,73.93
2023-03-25T02:54:58.199Z,74.67
2023-03-25T02:57:25.539Z,74.96
2023-03-25T02:59:54.130Z,75.49
2023-03-25T03:02:21.018Z,74.13
2023-03-25T03:04:48.243Z,75.10
2023-03-25T03:07:17.001Z,74.92
2023-03-25T03:09:45.789Z,71.16
2023-03-25T03:12:17.822Z,71.85
2023-03-25T03:14:44.291Z,69.67
2023-03-25T03:17:18.400Z,70.89
2023-03-25T03:19:52.395Z,71.06
2023-03-25T03:22:35.518Z,71.94
2023-03-25T03:25:03.286Z,71.48
2023-03-25T03:28:05.369Z,71.32
2023-03-25T03:30:52.216Z,70.97
2023-03-25T03:33:21.909Z,70.73
2023-03-25T03:35:57.525Z,70.68
2023-03-25T03:38:28.167Z,70.58
2023-03-25T03:40:55.878Z,70.88
2023-03-25T03:43:33.230Z,70.36
2023-03-25T03:46:01.111Z,70.73
2023-03-25T03:48:54.073Z,70.70
2023-03-25T03:51:22.890Z,71.33
2023-03-25T03:53:53.447Z,71.31
2023-03-25T03:56:22.156Z,71.76
2023-03-25T03:58:48.634Z,70.53
2023-03-25T04:01:33.964Z,70.18
2023-03-25T04:04:01.603Z,70.12
2023-03-25T04:06:30.761Z,70.81
2023-03-25T04:09:00.839Z,70.14
2023-03-25T04:11:28.257Z,70.53
2023-03-25T04:13:54.761Z,70.11
2023-03-25T04:16:21.776Z,70.38
2023-03-25T04:18:48.218Z,70.43
2023-03-25T04:21:15.414Z,70.08
2023-03-25T04:23:41.868Z,70.58
2023-03-25T04:26:08.338Z,70.47
2023-03-25T04:28:36.809Z,70.34
2023-03-25T04:31:07.540Z,70.37
2023-03-25T04:33:35.991Z,70.26
2023-03-25T04:36:03.661Z,70.84
2023-03-25T04:38:30.585Z,70.40
2023-03-25T04:40:58.285Z,70.87
2023-03-25T04:43:24.799Z,70.12
2023-03-25T04:45:55.023Z,70.46
2023-03-25T04:48:26.251Z,70.53
2023-03-25T04:50:52.766Z,70.39
2023-03-25T04:53:19.245Z,70.56
2023-03-25T04:55:49.578Z,70.85
2023-03-25T04:58:16.276Z,70.66
2023-03-25T05:00:43.175Z,71.36
2023-03-25T05:03:09.835Z,71.00
2023-03-25T05:05:36.421Z,71.44
2023-03-25T05:08:03.249Z,71.79
2023-03-25T05:10:29.810Z,71.70
2023-03-25T05:13:00.326Z,70.80
2023-03-25T05:15:26.888Z,70.96
2023-03-25T05:17:53.598Z,71.34
2023-03-25T05:20:20.101Z,71.35
2023-03-25T05:22:46.595Z,71.37
2023-03-25T05:25:13.095Z,70.93
2023-03-25T05:27:39.560Z,71.08
2023-03-25T05:30:06.839Z,70.36
2023-03-25T05:32:33.450Z,70.89
2023-03-25T05:35:00.415Z,70.67
2023-03-25T05:37:27.020Z,70.23
2023-03-25T05:39:53.457Z,70.43
2023-03-25T05:42:23.204Z,70.04
2023-03-25T05:44:53.294Z,70.47
2023-03-25T05:47:21.934Z,70.39
2023-03-25T05:49:48.891Z,69.89
2023-03-25T05:52:17.047Z,69.43
2023-03-25T05:54:46.690Z,69.26
2023-03-25T05:57:13.310Z,69.64
2023-03-25T05:59:40.832Z,69.44
2023-03-25T06:02:08.643Z,69.21
2023-03-25T06:04:38.047Z,69.28
2023-03-25T06:07:14.037Z,68.56
2023-03-25T06:09:46.909Z,69.01
2023-03-25T06:12:13.998Z,68.78
2023-03-25T06:14:43.069Z,68.25
2023-03-25T06:17:10.913Z,68.21
2023-03-25T06:19:39.375Z,67.87
2023-03-25T06:22:06.830Z,68.18
2023-03-25T06:24:33.292Z,67.94
2023-03-25T06:26:59.952Z,67.59
2023-03-25T06:29:26.477Z,67.22
2023-03-25T06:31:52.981Z,67.54
2023-03-25T06:34:19.810Z,67.49
2023-03-25T06:36:50.177Z,66.40
2023-03-25T06:39:17.122Z,65.54
2023-03-25T06:41:43.576Z,65.35
2023-03-25T06:44:10.669Z,64.19
2023-03-25T06:46:37.147Z,59.64
2023-03-25T06:49:03.658Z,58.56
2023-03-25T06:51:30.218Z,57.96
2023-03-25T06:53:56.740Z,57.66
2023-03-25T06:56:24.781Z,58.16
2023-03-25T06:58:51.218Z,58.46
2023-03-25T07:01:17.722Z,58.47
2023-03-25T07:03:44.264Z,58.83
2023-03-25T07:06:14.491Z,59.34
2023-03-25T07:08:41.055Z,59.44
2023-03-25T07:11:07.764Z,59.22
2023-03-25T07:13:34.496Z,60.21
2023-03-25T07:16:01.279Z,60.52
2023-03-25T07:18:27.754Z,59.99
2023-03-25T07:20:54.171Z,59.45
2023-03-25T07:23:20.692Z,60.05
2023-03-25T07:25:47.247Z,59.49
2023-03-25T07:28:14.250Z,60.05
2023-03-25T07:30:40.958Z,59.87
2023-03-25T07:33:07.591Z,60.10
2023-03-25T07:35:34.162Z,60.07
2023-03-25T07:38:01.048Z,59.65
2023-03-25T07:40:27.614Z,59.62
2023-03-25T07:42:54.056Z,59.01
2023-03-25T07:45:20.654Z,58.66
2023-03-25T07:47:50.482Z,58.52
2023-03-25T07:50:18.016Z,58.42
2023-03-25T07:52:44.521Z,58.04
2023-03-25T07:55:11.103Z,57.47
2023-03-25T07:57:38.025Z,56.14
2023-03-25T08:00:06.126Z,55.78
2023-03-25T08:02:32.667Z,54.72
2023-03-25T08:05:00.823Z,53.86
2023-03-25T08:07:28.499Z,54.03
2023-03-25T08:09:55.117Z,53.76
2023-03-25T08:12:21.573Z,54.51
2023-03-25T08:14:48.074Z,54.94
2023-03-25T08:17:14.513Z,55.72
2023-03-25T08:19:41.159Z,55.68
2023-03-25T08:22:07.678Z,55.83
2023-03-25T08:24:34.180Z,56.01
2023-03-25T08:27:13.944Z,54.79
2023-03-25T08:29:43.065Z,54.60
2023-03-25T08:32:09.593Z,54.61
2023-03-25T08:34:40.142Z,56.07
2023-03-25T08:37:10.249Z,55.33
2023-03-25T08:39:40.203Z,55.46
2023-03-25T08:42:07.365Z,55.64
2023-03-25T08:44:33.881Z,56.62
2023-03-25T08:47:00.404Z,56.70
2023-03-25T08:49:26.971Z,55.77
2023-03-25T08:51:53.593Z,55.73
2023-03-25T08:54:20.113Z,55.11
2023-03-25T08:56:46.629Z,54.73
2023-03-25T08:59:13.666Z,54.40
2023-03-25T09:01:41.385Z,55.20
2023-03-25T09:04:07.877Z,55.46
2023-03-25T09:06:47.660Z,55.33
2023-03-25T09:09:20.867Z,56.87
2023-03-25T09:11:47.340Z,56.46
2023-03-25T09:14:13.854Z,56.63
2023-03-25T09:16:41.027Z,55.29
2023-03-25T09:19:08.219Z,54.02
2023-03-25T09:21:34.671Z,54.18
2023-03-25T09:24:01.252Z,54.98
2023-03-25T09:26:28.187Z,55.55
2023-03-25T09:28:56.377Z,56.09
2023-03-25T09:31:23.475Z,56.91
2023-03-25T09:33:50.140Z,57.38
2023-03-25T09:36:16.603Z,57.57
2023-03-25T09:38:43.079Z,56.85
2023-03-25T09:41:23.989Z,56.29
2023-03-25T09:44:09.096Z,57.22
2023-03-25T09:46:37.114Z,58.55
2023-03-25T09:49:03.577Z,57.82
2023-03-25T09:51:30.795Z,53.87
2023-03-25T09:53:57.331Z,53.15
2023-03-25T09:56:24.684Z,53.40
2023-03-25T09:59:01.398Z,53.14
2023-03-25T10:01:44.356Z,53.33
2023-03-25T10:04:20.005Z,53.02
2023-03-25T10:06:49.322Z,53.77
2023-03-25T10:09:25.312Z,55.71
2023-03-25T10:12:11.054Z,54.78
2023-03-25T10:14:46.715Z,54.13
2023-03-25T10:17:30.721Z,53.77
2023-03-25T10:20:00.758Z,54.15
2023-03-25T10:22:28.895Z,52.36
2023-03-25T10:24:56.830Z,52.95
2023-03-25T10:27:53.083Z,53.22
2023-03-25T10:30:49.010Z,50.97
2023-03-25T10:33:23.764Z,51.48
2023-03-25T10:35:50.460Z,50.69
2023-03-25T10:38:24.397Z,50.84
2023-03-25T10:40:53.116Z,50.01
2023-03-25T10:43:27.352Z,51.08
2023-03-25T10:46:14.149Z,49.31
2023-03-25T10:48:40.857Z,48.90
2023-03-25T10:51:08.673Z,48.76
2023-03-25T10:53:35.625Z,49.26
2023-03-25T10:56:02.299Z,50.16
2023-03-25T10:58:28.809Z,51.31
2023-03-25T11:00:55.315Z,51.55
2023-03-25T11:03:32.466Z,52.87
2023-03-25T11:05:58.968Z,52.88
2023-03-25T11:08:25.791Z,54.34
2023-03-25T11:10:57.265Z,51.60
2023-03-25T11:13:24.893Z,49.91
2023-03-25T11:15:52.735Z,49.22
2023-03-25T11:18:24.819Z,49.22
2023-03-25T11:21:01.618Z,48.72
2023-03-25T11:23:37.715Z,48.34
2023-03-25T11:26:17.145Z,47.31
2023-03-25T11:28:47.990Z,47.17
2023-03-25T11:31:18.677Z,46.62
2023-03-25T11:33:46.145Z,48.03
2023-03-25T11:36:13.846Z,47.39
2023-03-25T11:38:40.300Z,46.51
2023-03-25T11:41:10.019Z,45.72
2023-03-25T11:43:37.264Z,45.36
2023-03-25T11:46:10.652Z,43.45
2023-03-25T11:48:38.562Z,44.07
2023-03-25T11:51:05.934Z,44.20
2023-03-25T11:53:32.535Z,44.80
2023-03-25T11:56:04.571Z,43.32
2023-03-25T11:58:33.242Z,44.50
2023-03-25T12:01:04.372Z,45.00
2023-03-25T12:03:31.924Z,45.12
2023-03-25T12:06:05.983Z,45.82
2023-03-25T12:08:48.819Z,46.70
2023-03-25T12:11:25.000Z,45.88
2023-03-25T12:13:59.656Z,45.70
2023-03-25T12:16:44.886Z,44.84
2023-03-25T12:19:14.471Z,44.96
2023-03-25T12:21:59.765Z,44.42
2023-03-25T12:24:38.587Z,45.11
2023-03-25T12:27:14.270Z,45.81
2023-03-25T12:29:43.118Z,46.66
2023-03-25T12:32:09.580Z,45.38
2023-03-25T12:34:39.878Z,46.13
2023-03-25T12:37:25.349Z,46.17
2023-03-25T12:39:54.852Z,45.82
2023-03-25T12:42:27.813Z,46.21
2023-03-25T12:45:00.138Z,46.26
2023-03-25T12:47:36.945Z,47.10
2023-03-25T12:50:10.140Z,47.00
2023-03-25T12:52:42.063Z,45.75
2023-03-25T12:55:25.673Z,45.73
2023-03-25T12:58:11.210Z,46.34
2023-03-25T13:00:41.878Z,46.69
2023-03-25T13:03:23.706Z,47.04
2023-03-25T13:05:52.605Z,46.42
2023-03-25T13:08:28.357Z,47.29
2023-03-25T13:11:02.924Z,47.19
2023-03-25T13:13:29.548Z,47.90
2023-03-25T13:16:01.234Z,47.60
2023-03-25T13:18:28.722Z,47.37
2023-03-25T13:21:13.347Z,47.73
2023-03-25T13:23:41.277Z,47.88
2023-03-25T13:26:09.035Z,47.33
2023-03-25T13:28:38.616Z,48.75
2023-03-25T13:31:06.292Z,48.72
2023-03-25T13:33:33.518Z,49.67
2023-03-25T13:36:25.342Z,49.46
2023-03-25T13:38:59.305Z,49.58
2023-03-25T13:41:41.572Z,49.85
2023-03-25T13:44:08.387Z,49.43
2023-03-25T13:46:43.275Z,48.97
2023-03-25T13:49:15.752Z,49.95
2023-03-25T13:51:42.280Z,49.17
2023-03-25T13:54:11.274Z,49.40
2023-03-25T13:56:57.469Z,47.71
2023-03-25T13:59:26.147Z,46.41
2023-03-25T14:01:58.876Z,46.92
2023-03-25T14:04:29.136Z,48.29
2023-03-25T14:07:12.037Z,48.32
2023-03-25T14:09:48.184Z,48.75
2023-03-25T14:12:15.536Z,48.03
2023-03-25T14:14:44.086Z,48.26
2023-03-25T14:17:11.905Z,48.94
2023-03-25T14:19:39.056Z,48.01
2023-03-25T14:22:16.637Z,47.99
2023-03-25T14:24:43.132Z,47.76
2023-03-25T14:27:18.061Z,47.80
2023-03-25T14:29:52.871Z,48.54
2023-03-25T14:32:19.334Z,47.66
2023-03-25T14:34:47.231Z,47.81
2023-03-25T14:37:26.249Z,47.95
2023-03-25T14:39:53.538Z,48.01
2023-03-25T14:42:23.895Z,47.54
2023-03-25T14:44:54.516Z,48.16
2023-03-25T14:47:32.102Z,48.05
2023-03-25T14:50:06.507Z,47.83
2023-03-25T14:52:33.096Z,48.64
2023-03-25T14:55:01.688Z,48.95
2023-03-25T14:57:31.061Z,48.55
2023-03-25T15:00:01.534Z,49.27
2023-03-25T15:02:28.961Z,48.83
2023-03-25T15:04:57.074Z,49.00
2023-03-25T15:07:39.128Z,49.97
2023-03-25T15:10:06.094Z,48.64
2023-03-25T15:12:32.559Z,49.98
2023-03-25T15:15:24.736Z,49.60
2023-03-25T15:17:51.227Z,49.00
2023-03-25T15:20:23.679Z,49.70
2023-03-25T15:23:08.974Z,49.25
2023-03-25T15:25:35.403Z,48.68
2023-03-25T15:28:05.002Z,49.49
2023-03-25T15:30:31.504Z,50.71
2023-03-25T15:33:36.811Z,51.05
2023-03-25T15:36:10.841Z,50.70
2023-03-25T15:38:37.567Z,49.71
2023-03-25T15:41:09.245Z,49.94
2023-03-25T15:43:44.801Z,50.28
2023-03-25T15:46:37.346Z,49.57
2023-03-25T15:49:16.305Z,50.47
2023-03-25T15:51:55.001Z,46.37
2023-03-25T15:54:33.357Z,45.74
2023-03-25T15:57:02.827Z,45.82
2023-03-25T15:59:38.753Z,44.48
2023-03-25T16:02:08.514Z,42.76
2023-03-25T16:04:38.921Z,42.11
2023-03-25T16:07:05.725Z,42.69
2023-03-25T16:09:32.359Z,43.70
2023-03-25T16:11:59.682Z,43.67
2023-03-25T16:14:32.002Z,43.69
2023-03-25T16:16:58.938Z,41.64
2023-03-25T16:19:47.737Z,42.79
2023-03-25T16:22:32.918Z,43.19
2023-03-25T16:25:03.442Z,43.57
2023-03-25T16:27:30.792Z,43.45
2023-03-25T16:29:57.493Z,43.62
2023-03-25T16:32:25.693Z,44.59
2023-03-25T16:34:53.997Z,44.77
2023-03-25T16:37:20.972Z,45.33
2023-03-25T16:39:51.483Z,45.82
2023-03-25T16:42:38.350Z,45.63
2023-03-25T16:45:05.080Z,46.59
2023-03-25T16:47:31.973Z,46.79
2023-03-25T16:49:58.420Z,46.37
2023-03-25T16:52:28.635Z,47.15
2023-03-25T16:54:55.040Z,47.68
2023-03-25T16:57:25.223Z,48.02
2023-03-25T16:59:52.323Z,47.82
2023-03-25T17:02:42.420Z,48.24
2023-03-25T17:05:13.046Z,47.92
2023-03-25T17:07:39.654Z,48.37
2023-03-25T17:10:13.382Z,48.35
2023-03-25T17:12:40.009Z,48.77
2023-03-25T17:15:09.357Z,49.05
2023-03-25T17:17:43.751Z,49.31
2023-03-25T17:20:18.025Z,49.63
2023-03-25T17:22:55.378Z,49.99
2023-03-25T17:25:32.488Z,50.75
2023-03-25T17:28:06.353Z,49.92
2023-03-25T17:30:42.885Z,50.58
2023-03-25T17:33:19.581Z,49.67
2023-03-25T17:35:48.852Z,50.42
2023-03-25T17:38:19.847Z,50.73
2023-03-25T17:40:46.394Z,51.04
2023-03-25T17:43:17.447Z,50.59
2023-03-25T17:45:45.377Z,50.62
2023-03-25T17:48:14.677Z,50.66
2023-03-25T17:50:42.354Z,51.23
2023-03-25T17:53:08.978Z,51.37
2023-03-25T17:55:37.206Z,51.72
2023-03-25T17:58:04.089Z,52.05
2023-03-25T18:00:33.187Z,52.16
2023-03-25T18:03:06.183Z,51.65
2023-03-25T18:05:32.917Z,52.42
2023-03-25T18:08:00.072Z,52.62
2023-03-25T18:10:26.638Z,52.61
2023-03-25T18:12:53.077Z,52.37
2023-03-25T18:15:19.591Z,53.21
2023-03-25T18:17:46.251Z,53.22
2023-03-25T18:20:23.598Z,53.79
2023-03-25T18:22:55.885Z,53.92
2023-03-25T18:25:22.680Z,53.91
2023-03-25T18:27:50.217Z,55.26
2023-03-25T18:30:24.861Z,54.50
2023-03-25T18:32:51.425Z,54.93
2023-03-25T18:35:18.119Z,54.73
2023-03-25T18:37:44.981Z,55.33
2023-03-25T18:40:18.758Z,55.11
2023-03-25T18:42:45.321Z,55.70
2023-03-25T18:45:12.388Z,55.19
2023-03-25T18:47:38.912Z,54.80
2023-03-25T18:50:32.529Z,55.19
2023-03-25T18:52:59.309Z,54.68
2023-03-25T18:55:27.033Z,55.48
2023-03-25T18:57:53.865Z,55.60
2023-03-25T19:00:28.671Z,55.70
2023-03-25T19:02:55.453Z,55.60
2023-03-25T19:05:22.497Z,55.18
2023-03-25T19:07:49.544Z,55.42
2023-03-25T19:10:19.138Z,55.49
2023-03-25T19:12:46.238Z,55.56
2023-03-25T19:15:13.800Z,55.49
2023-03-25T19:17:40.524Z,55.85
2023-03-25T19:20:07.641Z,56.01
2023-03-25T19:22:34.148Z,56.20
2023-03-25T19:25:00.701Z,56.66
2023-03-25T19:27:27.140Z,56.61
2023-03-25T19:29:54.460Z,56.49
2023-03-25T19:32:21.716Z,56.63
2023-03-25T19:34:51.441Z,56.94
2023-03-25T19:37:18.714Z,57.04
2023-03-25T19:39:45.236Z,56.70
2023-03-25T19:42:12.035Z,57.07
2023-03-25T19:44:38.630Z,57.26
2023-03-25T19:47:05.311Z,57.47
2023-03-25T19:49:39.710Z,57.64
2023-03-25T19:52:07.074Z,57.68
2023-03-25T19:54:33.521Z,57.96
2023-03-25T19:57:00.017Z,57.87
2023-03-25T19:59:26.921Z,57.85
2023-03-25T20:01:53.398Z,57.95
2023-03-25T20:04:20.268Z,58.33
2023-03-25T20:06:46.737Z,58.43
2023-03-25T20:09:13.894Z,58.22
2023-03-25T20:11:40.323Z,58.31
2023-03-25T20:14:07.059Z,59.08
2023-03-25T20:16:34.976Z,58.64
2023-03-25T20:19:01.555Z,59.23
2023-03-25T20:21:28.068Z,58.50
2023-03-25T20:23:54.588Z,58.50
2023-03-25T20:26:21.145Z,58.61
2023-03-25T20:28:49.438Z,58.55
2023-03-25T20:31:18.508Z,58.92
2023-03-25T20:33:45.369Z,59.22
2023-03-25T20:36:11.910Z,59.30
2023-03-25T20:38:41.929Z,59.31
2023-03-25T20:41:13.863Z,59.39
2023-03-25T20:43:40.491Z,59.67
2023-03-25T20:46:07.286Z,59.96
2023-03-25T20:48:33.848Z,60.14
2023-03-25T20:51:06.895Z,59.61
2023-03-25T20:53:33.483Z,60.05
2023-03-25T20:56:00.662Z,60.57
2023-03-25T20:58:27.578Z,60.55
2023-03-25T21:00:56.197Z,60.32
2023-03-25T21:03:24.272Z,60.53
2023-03-25T21:05:51.848Z,60.54
2023-03-25T21:08:18.570Z,60.49
2023-03-25T21:10:46.511Z,60.88
2023-03-25T21:13:13.593Z,61.07
2023-03-25T21:15:40.197Z,61.11
2023-03-25T21:18:06.749Z,61.51
2023-03-25T21:20:33.835Z,61.44
2023-03-25T21:23:01.229Z,61.57
2023-03-25T21:25:35.253Z,61.25
2023-03-25T21:28:02.256Z,61.46
2023-03-25T21:30:28.760Z,61.40
2023-03-25T21:32:55.384Z,61.66
2023-03-25T21:35:22.469Z,61.47
2023-03-25T21:37:49.093Z,62.11
2023-03-25T21:40:15.756Z,62.37
2023-03-25T21:42:42.480Z,62.06
2023-03-25T21:45:13.648Z,62.54
2023-03-25T21:47:40.316Z,63.33
2023-03-25T21:50:07.815Z,62.90
2023-03-25T21:52:34.255Z,63.32
2023-03-25T21:55:00.823Z,63.19
2023-03-25T21:57:27.378Z,63.58
2023-03-25T21:59:55.279Z,63.35
2023-03-25T22:02:21.983Z,63.75
2023-03-25T22:04:49.026Z,63.86
2023-03-25T22:07:15.774Z,64.22
2023-03-25T22:09:42.232Z,64.71
2023-03-25T22:12:08.683Z,64.51
2023-03-25T22:14:35.492Z,64.59
2023-03-25T22:17:02.043Z,64.83
2023-03-25T22:19:28.511Z,64.87
2023-03-25T22:21:54.980Z,64.87
2023-03-25T22:24:21.530Z,65.65
2023-03-25T22:26:48.003Z,65.35
2023-03-25T22:29:14.441Z,65.36
2023-03-25T22:31:40.948Z,65.72
2023-03-25T22:34:11.421Z,65.58
2023-03-25T22:36:38.823Z,65.42
2023-03-25T22:39:06.388Z,66.08
2023-03-25T22:41:33.052Z,66.65
2023-03-25T22:43:59.682Z,66.23
2023-03-25T22:46:26.355Z,66.04
2023-03-25T22:48:52.923Z,66.20
2023-03-25T22:51:19.999Z,65.97
2023-03-25T22:53:46.522Z,65.98
2023-03-25T22:56:13.042Z,66.54
2023-03-25T22:58:39.488Z,66.20
2023-03-25T23:01:07.218Z,66.33
2023-03-25T23:03:33.840Z,66.86
2023-03-25T23:06:06.771Z,66.63
2023-03-25T23:08:38.306Z,66.70
2023-03-25T23:11:09.386Z,67.30
2023-03-25T23:13:35.984Z,67.50
2023-03-25T23:16:06.429Z,67.47
2023-03-25T23:18:32.915Z,67.47
2023-03-25T23:20:59.712Z,67.57
2023-03-25T23:23:26.270Z,67.58
2023-03-25T23:26:03.545Z,67.50
2023-03-25T23:28:30.816Z,67.13
2023-03-25T23:30:57.778Z,67.04
2023-03-25T23:33:24.235Z,67.25
2023-03-25T23:35:50.805Z,67.28
2023-03-25T23:38:41.465Z,67.27
2023-03-25T23:41:08.549Z,67.27
2023-03-25T23:43:35.338Z,67.44
2023-03-25T23:46:01.896Z,67.47
2023-03-25T23:48:28.555Z,67.39
2023-03-25T23:50:55.962Z,67.58
2023-03-25T23:53:22.905Z,67.87
2023-03-25T23:55:50.261Z,67.46
2023-03-25T23:58:16.805Z,67.42
